createdAt,value
2023-02-13T00:00:52.345Z,6.53
2023-02-13T00:03:19.412Z,6.52
2023-02-13T00:05:46.325Z,6.51
2023-02-13T00:08:13.144Z,6.52
2023-02-13T00:10:40.664Z,6.46
2023-02-13T00:13:07.513Z,6.51
2023-02-13T00:15:34.598Z,6.52
2023-02-13T00:18:02.715Z,6.53
2023-02-13T00:20:29.665Z,6.50
2023-02-13T00:22:59.312Z,6.46
2023-02-13T00:25:26.486Z,6.49
2023-02-13T00:27:54.144Z,6.54
2023-02-13T00:30:22.548Z,6.65
2023-02-13T00:32:51.368Z,6.68
2023-02-13T00:35:18.405Z,6.65
2023-02-13T00:37:45.327Z,6.63
2023-02-13T00:40:12.915Z,6.57
2023-02-13T00:42:39.782Z,6.55
2023-02-13T00:45:06.953Z,6.51
2023-02-13T00:47:33.971Z,6.50
2023-02-13T00:50:01.186Z,6.50
2023-02-13T00:52:28.125Z,6.52
2023-02-13T00:54:55.079Z,6.56
2023-02-13T00:57:22.017Z,6.53
2023-02-13T00:59:50.465Z,6.48
2023-02-13T01:02:18.047Z,6.44
2023-02-13T01:04:44.921Z,6.46
2023-02-13T01:07:11.759Z,6.48
2023-02-13T01:09:38.757Z,6.49
2023-02-13T01:12:05.780Z,6.50
2023-02-13T01:14:32.693Z,6.53
2023-02-13T01:16:59.761Z,6.48
2023-02-13T01:19:27.680Z,6.46
2023-02-13T01:21:54.624Z,6.45
2023-02-13T01:24:21.636Z,6.44
2023-02-13T01:26:48.412Z,6.44
2023-02-13T01:29:15.434Z,6.42
2023-02-13T01:31:42.444Z,6.47
2023-02-13T01:34:09.456Z,6.51
2023-02-13T01:36:36.275Z,6.52
2023-02-13T01:39:03.698Z,6.48
2023-02-13T01:41:31.239Z,6.42
2023-02-13T01:44:02.199Z,6.39
2023-02-13T01:46:38.101Z,6.37
2023-02-13T01:49:25.118Z,6.38
2023-02-13T01:51:56.574Z,6.37
2023-02-13T01:54:31.440Z,6.35
2023-02-13T01:57:13.462Z,6.36
2023-02-13T01:59:50.724Z,6.36
2023-02-13T02:02:19.695Z,6.36
2023-02-13T02:04:48.332Z,6.37
2023-02-13T02:07:25.895Z,6.37
2023-02-13T02:09:58.546Z,6.40
2023-02-13T02:12:42.400Z,6.40
2023-02-13T02:15:10.785Z,6.35
2023-02-13T02:17:38.050Z,6.33
2023-02-13T02:20:40.692Z,6.37
2023-02-13T02:23:26.474Z,6.36
2023-02-13T02:26:41.939Z,6.35
2023-02-13T02:29:46.305Z,6.31
2023-02-13T02:32:22.069Z,6.32
2023-02-13T02:34:55.312Z,6.32
2023-02-13T02:37:35.262Z,6.32
2023-02-13T02:40:36.266Z,6.31
2023-02-13T02:43:28.250Z,6.32
2023-02-13T02:46:11.857Z,6.33
2023-02-13T02:49:09.679Z,6.37
2023-02-13T02:51:44.865Z,6.35
2023-02-13T02:54:38.407Z,6.32
2023-02-13T02:57:21.831Z,6.32
2023-02-13T03:00:15.742Z,6.33
2023-02-13T03:03:01.583Z,6.35
2023-02-13T03:05:52.221Z,6.32
2023-02-13T03:08:39.414Z,6.31
2023-02-13T03:11:25.644Z,6.32
2023-02-13T03:13:54.189Z,6.34
2023-02-13T03:16:43.422Z,6.34
2023-02-13T03:19:36.568Z,6.27
2023-02-13T03:22:20.525Z,6.24
2023-02-13T03:24:55.900Z,6.27
2023-02-13T03:28:09.524Z,6.24
2023-02-13T03:30:45.453Z,6.24
2023-02-13T03:33:25.980Z,6.24
2023-02-13T03:36:41.440Z,6.23
2023-02-13T03:39:27.416Z,6.26
2023-02-13T03:42:29.805Z,6.28
2023-02-13T03:45:22.858Z,6.31
2023-02-13T03:47:55.412Z,6.28
2023-02-13T03:50:24.188Z,6.28
2023-02-13T03:53:02.313Z,6.27
2023-02-13T03:55:54.516Z,6.31
2023-02-13T03:58:54.195Z,6.31
2023-02-13T04:01:26.628Z,6.27
2023-02-13T04:04:05.693Z,6.25
2023-02-13T04:06:38.371Z,6.22
2023-02-13T04:09:05.276Z,6.24
2023-02-13T04:11:50.925Z,6.24
2023-02-13T04:14:34.160Z,6.26
2023-02-13T04:17:41.744Z,6.33
2023-02-13T04:20:09.325Z,6.36
2023-02-13T04:22:42.440Z,6.34
2023-02-13T04:25:11.907Z,6.33
2023-02-13T04:27:38.840Z,6.38
2023-02-13T04:30:06.837Z,6.40
2023-02-13T04:32:34.062Z,6.40
2023-02-13T04:35:01.231Z,6.41
2023-02-13T04:37:28.195Z,6.43
2023-02-13T04:39:55.116Z,6.42
2023-02-13T04:42:22.034Z,6.41
2023-02-13T04:44:48.925Z,6.38
2023-02-13T04:47:15.768Z,6.40
2023-02-13T04:49:42.662Z,6.43
2023-02-13T04:52:09.485Z,6.45
2023-02-13T04:54:36.292Z,6.42
2023-02-13T04:57:03.222Z,6.38
2023-02-13T04:59:30.065Z,6.36
2023-02-13T05:01:59.505Z,6.37
2023-02-13T05:04:26.645Z,6.41
2023-02-13T05:06:53.494Z,6.40
2023-02-13T05:09:20.658Z,6.43
2023-02-13T05:11:47.654Z,6.42
2023-02-13T05:14:14.594Z,6.41
2023-02-13T05:16:41.593Z,6.38
2023-02-13T05:19:08.724Z,6.38
2023-02-13T05:21:54.162Z,6.38
2023-02-13T05:24:21.299Z,6.37
2023-02-13T05:26:48.473Z,6.42
2023-02-13T05:29:19.485Z,6.41
2023-02-13T05:31:54.638Z,6.40
2023-02-13T05:34:24.059Z,6.38
2023-02-13T05:36:51.685Z,6.38
2023-02-13T05:39:19.276Z,6.34
2023-02-13T05:41:47.218Z,6.35
2023-02-13T05:44:14.818Z,6.36
2023-02-13T05:46:43.006Z,6.35
2023-02-13T05:49:11.347Z,6.36
2023-02-13T05:51:38.341Z,6.37
2023-02-13T05:54:05.296Z,6.35
2023-02-13T05:56:32.319Z,6.34
2023-02-13T05:58:59.282Z,6.34
2023-02-13T06:01:26.483Z,6.34
2023-02-13T06:03:53.553Z,6.35
2023-02-13T06:06:21.410Z,6.34
2023-02-13T06:08:48.571Z,6.30
2023-02-13T06:11:15.558Z,6.27
2023-02-13T06:13:42.668Z,6.26
2023-02-13T06:16:12.636Z,6.25
2023-02-13T06:18:40.017Z,6.23
2023-02-13T06:21:08.145Z,6.26
2023-02-13T06:23:35.203Z,6.26
2023-02-13T06:26:04.493Z,6.25
2023-02-13T06:28:32.297Z,6.23
2023-02-13T06:31:00.075Z,6.22
2023-02-13T06:33:27.684Z,6.25
2023-02-13T06:35:54.845Z,6.26
2023-02-13T06:38:22.281Z,6.24
2023-02-13T06:40:49.971Z,6.26
2023-02-13T06:43:18.017Z,6.28
2023-02-13T06:45:46.978Z,6.21
2023-02-13T06:48:14.508Z,6.26
2023-02-13T06:50:41.466Z,6.28
2023-02-13T06:53:08.589Z,6.28
2023-02-13T06:55:36.637Z,6.24
2023-02-13T06:58:03.680Z,6.24
2023-02-13T07:00:30.851Z,6.25
2023-02-13T07:03:06.495Z,6.27
2023-02-13T07:05:33.770Z,6.26
2023-02-13T07:08:00.841Z,6.25
2023-02-13T07:10:28.304Z,6.25
2023-02-13T07:13:05.450Z,6.27
2023-02-13T07:15:37.395Z,6.26
2023-02-13T07:18:05.231Z,6.25
2023-02-13T07:20:32.547Z,6.25
2023-02-13T07:23:04.933Z,6.29
2023-02-13T07:25:32.072Z,6.29
2023-02-13T07:28:06.965Z,6.30
2023-02-13T07:30:35.148Z,6.30
2023-02-13T07:33:03.238Z,6.30
2023-02-13T07:35:30.910Z,6.35
2023-02-13T07:37:58.127Z,6.36
2023-02-13T07:40:24.996Z,6.39
2023-02-13T07:42:52.294Z,6.39
2023-02-13T07:45:19.856Z,6.42
2023-02-13T07:47:46.746Z,6.46
2023-02-13T07:50:14.014Z,6.49
2023-02-13T07:52:40.895Z,6.51
2023-02-13T07:55:08.381Z,6.54
2023-02-13T07:57:35.460Z,6.54
2023-02-13T08:00:02.639Z,6.58
2023-02-13T08:02:38.974Z,6.61
2023-02-13T08:05:06.411Z,6.58
2023-02-13T08:07:33.784Z,6.61
2023-02-13T08:10:19.687Z,6.65
2023-02-13T08:12:47.273Z,6.73
2023-02-13T08:15:15.367Z,6.75
2023-02-13T08:17:42.784Z,6.74
2023-02-13T08:20:10.125Z,6.77
2023-02-13T08:22:38.077Z,6.80
2023-02-13T08:25:06.427Z,6.84
2023-02-13T08:27:34.292Z,6.90
2023-02-13T08:30:01.998Z,6.87
2023-02-13T08:32:29.175Z,6.88
2023-02-13T08:34:56.076Z,6.86
2023-02-13T08:37:24.441Z,6.96
2023-02-13T08:39:51.634Z,6.99
2023-02-13T08:42:18.585Z,7.02
2023-02-13T08:44:45.549Z,7.05
2023-02-13T08:47:12.509Z,7.03
2023-02-13T08:49:39.372Z,7.04
2023-02-13T08:52:06.263Z,7.05
2023-02-13T08:54:35.019Z,7.04
2023-02-13T08:57:02.092Z,7.05
2023-02-13T08:59:28.950Z,7.04
2023-02-13T09:01:57.385Z,7.06
2023-02-13T09:04:24.314Z,7.09
2023-02-13T09:06:51.275Z,7.12
2023-02-13T09:09:19.864Z,7.15
2023-02-13T09:11:46.902Z,7.16
2023-02-13T09:14:13.793Z,7.21
2023-02-13T09:16:40.749Z,7.23
2023-02-13T09:19:07.635Z,7.25
2023-02-13T09:21:34.665Z,7.24
2023-02-13T09:24:01.981Z,7.19
2023-02-13T09:26:28.947Z,7.24
2023-02-13T09:28:55.974Z,7.29
2023-02-13T09:31:24.449Z,7.34
2023-02-13T09:33:52.014Z,7.35
2023-02-13T09:36:24.204Z,7.41
2023-02-13T09:38:58.132Z,7.43
2023-02-13T09:41:26.840Z,7.45
2023-02-13T09:44:12.792Z,7.45
2023-02-13T09:46:44.162Z,7.47
2023-02-13T09:49:19.194Z,7.48
2023-02-13T09:51:52.119Z,7.50
2023-02-13T09:54:20.402Z,7.52
2023-02-13T09:57:07.266Z,7.54
2023-02-13T09:59:40.180Z,7.56
2023-02-13T10:02:48.218Z,7.60
2023-02-13T10:05:21.397Z,7.61
2023-02-13T10:07:48.276Z,7.66
2023-02-13T10:10:33.893Z,7.76
2023-02-13T10:13:15.762Z,7.76
2023-02-13T10:15:48.571Z,7.81
2023-02-13T10:18:24.352Z,7.83
2023-02-13T10:21:04.194Z,7.88
2023-02-13T10:24:05.182Z,7.86
2023-02-13T10:26:46.978Z,7.91
2023-02-13T10:29:55.729Z,7.84
2023-02-13T10:32:30.067Z,7.93
2023-02-13T10:35:02.531Z,7.89
2023-02-13T10:37:30.458Z,7.97
2023-02-13T10:39:57.503Z,7.96
2023-02-13T10:42:32.102Z,7.99
2023-02-13T10:45:23.949Z,7.92
2023-02-13T10:48:07.755Z,7.80
2023-02-13T10:50:43.501Z,7.87
2023-02-13T10:53:19.769Z,7.93
2023-02-13T10:56:22.266Z,7.97
2023-02-13T10:59:24.909Z,8.02
2023-02-13T11:02:02.256Z,8.11
2023-02-13T11:04:30.231Z,8.19
2023-02-13T11:07:03.893Z,8.28
2023-02-13T11:09:38.669Z,8.25
2023-02-13T11:12:28.397Z,8.24
2023-02-13T11:15:00.860Z,8.23
2023-02-13T11:17:32.220Z,8.21
2023-02-13T11:20:03.275Z,8.27
2023-02-13T11:22:45.277Z,8.36
2023-02-13T11:25:22.994Z,8.36
2023-02-13T11:27:53.489Z,8.35
2023-02-13T11:30:23.083Z,8.57
2023-02-13T11:33:18.524Z,8.57
2023-02-13T11:35:46.995Z,8.58
2023-02-13T11:38:23.894Z,8.63
2023-02-13T11:41:04.505Z,8.61
2023-02-13T11:43:40.419Z,8.56
2023-02-13T11:46:17.573Z,8.60
2023-02-13T11:48:55.987Z,8.67
2023-02-13T11:51:39.753Z,8.68
2023-02-13T11:54:22.052Z,8.68
2023-02-13T11:57:04.068Z,8.92
2023-02-13T11:59:40.104Z,9.01
2023-02-13T12:02:23.505Z,8.91
2023-02-13T12:05:14.099Z,8.84
2023-02-13T12:07:42.979Z,9.03
2023-02-13T12:10:17.465Z,9.18
2023-02-13T12:12:55.818Z,9.07
2023-02-13T12:15:26.529Z,9.06
2023-02-13T12:18:08.446Z,9.08
2023-02-13T12:20:53.808Z,9.23
2023-02-13T12:23:48.121Z,9.29
2023-02-13T12:26:17.740Z,9.32
2023-02-13T12:28:51.579Z,9.37
2023-02-13T12:31:30.775Z,9.28
2023-02-13T12:34:21.439Z,9.48
2023-02-13T12:37:01.191Z,9.56
2023-02-13T12:40:15.786Z,9.48
2023-02-13T12:42:54.922Z,9.52
2023-02-13T12:45:48.065Z,9.57
2023-02-13T12:48:42.493Z,9.56
2023-02-13T12:51:32.105Z,9.52
2023-02-13T12:54:02.092Z,9.63
2023-02-13T12:56:40.701Z,9.73
2023-02-13T12:59:22.927Z,9.96
2023-02-13T13:01:52.746Z,9.87
2023-02-13T13:04:40.589Z,9.71
2023-02-13T13:07:38.157Z,9.74
2023-02-13T13:10:35.939Z,9.76
2023-02-13T13:13:41.744Z,9.70
2023-02-13T13:16:24.061Z,9.76
2023-02-13T13:19:08.028Z,9.72
2023-02-13T13:21:56.690Z,9.72
2023-02-13T13:24:44.716Z,9.75
2023-02-13T13:27:20.720Z,9.65
2023-02-13T13:30:13.535Z,9.86
2023-02-13T13:32:44.087Z,10.05
2023-02-13T13:35:19.285Z,10.12
2023-02-13T13:38:11.607Z,10.07
2023-02-13T13:40:52.745Z,10.14
2023-02-13T13:43:28.609Z,10.11
2023-02-13T13:46:03.992Z,10.04
2023-02-13T13:48:45.644Z,10.13
2023-02-13T13:51:16.701Z,10.16
2023-02-13T13:54:01.941Z,10.23
2023-02-13T13:56:54.680Z,10.18
2023-02-13T13:59:33.524Z,10.04
2023-02-13T14:02:28.317Z,10.10
2023-02-13T14:05:01.151Z,10.06
2023-02-13T14:07:34.968Z,10.06
2023-02-13T14:10:02.174Z,10.11
2023-02-13T14:12:29.221Z,9.97
2023-02-13T14:15:00.687Z,9.87
2023-02-13T14:17:46.079Z,9.93
2023-02-13T14:20:37.722Z,9.94
2023-02-13T14:23:24.071Z,9.88
2023-02-13T14:26:09.965Z,9.87
2023-02-13T14:28:37.138Z,9.85
2023-02-13T14:31:22.536Z,9.75
2023-02-13T14:34:00.037Z,9.74
2023-02-13T14:36:33.375Z,9.83
2023-02-13T14:39:04.935Z,9.84
2023-02-13T14:41:43.103Z,9.72
2023-02-13T14:44:33.950Z,9.79
2023-02-13T14:47:05.950Z,9.77
2023-02-13T14:49:37.228Z,9.93
2023-02-13T14:52:18.202Z,9.90
2023-02-13T14:54:52.094Z,9.85
2023-02-13T14:57:31.917Z,9.73
2023-02-13T15:00:08.785Z,9.69
2023-02-13T15:02:41.861Z,9.66
2023-02-13T15:05:14.956Z,9.72
2023-02-13T15:07:49.553Z,9.79
2023-02-13T15:10:34.537Z,9.74
2023-02-13T15:13:03.405Z,9.65
2023-02-13T15:15:34.441Z,9.62
2023-02-13T15:18:04.749Z,9.61
2023-02-13T15:20:35.280Z,9.65
2023-02-13T15:23:02.688Z,9.61
2023-02-13T15:25:32.914Z,9.57
2023-02-13T15:28:01.061Z,9.49
2023-02-13T15:30:30.727Z,9.53
2023-02-13T15:33:03.982Z,9.50
2023-02-13T15:35:34.458Z,9.44
2023-02-13T15:38:30.926Z,9.34
2023-02-13T15:41:03.160Z,9.35
2023-02-13T15:43:43.905Z,9.34
2023-02-13T15:46:48.138Z,9.30
2023-02-13T15:49:19.344Z,9.27
2023-02-13T15:51:47.472Z,9.27
2023-02-13T15:54:27.992Z,9.28
2023-02-13T15:57:00.026Z,9.24
2023-02-13T15:59:33.913Z,9.25
2023-02-13T16:02:03.089Z,9.22
2023-02-13T16:04:30.788Z,9.18
2023-02-13T16:06:58.945Z,9.12
2023-02-13T16:09:35.908Z,9.01
2023-02-13T16:12:23.077Z,8.95
2023-02-13T16:14:55.354Z,8.87
2023-02-13T16:17:22.195Z,8.84
2023-02-13T16:19:52.390Z,8.80
2023-02-13T16:22:34.173Z,8.78
2023-02-13T16:25:13.255Z,8.79
2023-02-13T16:27:57.842Z,8.77
2023-02-13T16:30:43.216Z,8.67
2023-02-13T16:33:22.434Z,8.67
2023-02-13T16:35:55.227Z,8.65
2023-02-13T16:38:38.395Z,8.64
2023-02-13T16:41:06.678Z,8.63
2023-02-13T16:43:51.831Z,8.58
2023-02-13T16:46:28.140Z,8.57
2023-02-13T16:49:01.069Z,8.56
2023-02-13T16:51:59.687Z,8.55
2023-02-13T16:54:29.324Z,8.47
2023-02-13T16:57:05.810Z,8.43
2023-02-13T16:59:47.768Z,8.40
2023-02-13T17:02:30.938Z,8.27
2023-02-13T17:05:09.810Z,8.11
2023-02-13T17:07:43.792Z,7.95
2023-02-13T17:10:23.192Z,7.78
2023-02-13T17:12:51.795Z,7.63
2023-02-13T17:15:21.991Z,7.48
2023-02-13T17:17:50.758Z,7.37
2023-02-13T17:20:40.472Z,7.26
2023-02-13T17:23:14.405Z,7.17
2023-02-13T17:28:26.840Z,7.00
2023-02-13T17:30:56.979Z,7.02
2023-02-13T17:33:29.203Z,6.94
2023-02-13T17:35:56.592Z,6.88
2023-02-13T17:38:23.727Z,6.87
2023-02-13T17:40:50.674Z,6.85
2023-02-13T17:43:19.677Z,6.75
2023-02-13T17:45:48.499Z,6.64
2023-02-13T17:48:15.517Z,6.60
2023-02-13T17:50:42.513Z,6.54
2023-02-13T17:53:21.201Z,6.53
2023-02-13T17:55:48.544Z,6.50
2023-02-13T17:58:15.472Z,6.49
2023-02-13T18:00:42.635Z,6.43
2023-02-13T18:03:11.923Z,6.36
2023-02-13T18:05:39.306Z,6.31
2023-02-13T18:08:06.602Z,6.27
2023-02-13T18:10:36.048Z,6.26
2023-02-13T18:13:06.619Z,6.12
2023-02-13T18:15:35.125Z,6.03
2023-02-13T18:18:02.232Z,6.00
2023-02-13T18:20:29.167Z,5.98
2023-02-13T18:22:56.188Z,5.96
2023-02-13T18:25:23.762Z,5.95
2023-02-13T18:27:51.062Z,5.89
2023-02-13T18:30:20.490Z,5.88
2023-02-13T18:32:53.181Z,5.82
2023-02-13T18:35:20.508Z,5.73
2023-02-13T18:37:47.410Z,5.73
2023-02-13T18:40:17.832Z,5.68
2023-02-13T18:42:45.292Z,5.60
2023-02-13T18:45:12.953Z,5.57
2023-02-13T18:47:40.258Z,5.52
2023-02-13T18:50:08.723Z,5.48
2023-02-13T18:52:35.869Z,5.41
2023-02-13T18:55:04.042Z,5.36
2023-02-13T18:57:30.900Z,5.31
2023-02-13T18:59:57.892Z,5.26
2023-02-13T19:02:25.162Z,5.23
2023-02-13T19:04:52.097Z,5.23
2023-02-13T19:07:19.039Z,5.20
2023-02-13T19:09:45.961Z,5.14
2023-02-13T19:12:12.808Z,5.07
2023-02-13T19:14:40.201Z,4.96
2023-02-13T19:17:08.601Z,4.91
2023-02-13T19:19:35.682Z,4.75
2023-02-13T19:22:03.646Z,4.69
2023-02-13T19:24:30.695Z,4.67
2023-02-13T19:26:57.593Z,4.66
2023-02-13T19:29:24.627Z,4.62
2023-02-13T19:31:51.618Z,4.55
2023-02-13T19:34:18.514Z,4.48
2023-02-13T19:36:45.430Z,4.42
2023-02-13T19:39:12.650Z,4.38
2023-02-13T19:41:40.875Z,4.40
2023-02-13T19:44:08.834Z,4.32
2023-02-13T19:46:37.187Z,4.34
2023-02-13T19:49:04.845Z,4.31
2023-02-13T19:51:33.460Z,4.27
2023-02-13T19:54:03.839Z,4.17
2023-02-13T19:56:31.977Z,4.17
2023-02-13T19:58:59.368Z,4.12
2023-02-13T20:01:28.688Z,4.08
2023-02-13T20:03:56.099Z,4.09
2023-02-13T20:06:32.086Z,4.06
2023-02-13T20:09:01.964Z,4.04
2023-02-13T20:11:29.075Z,3.98
2023-02-13T20:13:58.090Z,3.92
2023-02-13T20:16:25.068Z,3.90
2023-02-13T20:18:52.936Z,3.88
2023-02-13T20:21:21.076Z,3.88
2023-02-13T20:23:51.114Z,3.90
2023-02-13T20:26:18.832Z,3.94
2023-02-13T20:28:46.982Z,3.93
2023-02-13T20:31:20.770Z,3.90
2023-02-13T20:33:49.280Z,3.89
2023-02-13T20:36:21.973Z,3.94
2023-02-13T20:38:53.148Z,3.94
2023-02-13T20:41:23.738Z,3.98
2023-02-13T20:43:51.348Z,3.97
2023-02-13T20:46:18.761Z,3.97
2023-02-13T20:48:47.272Z,3.98
2023-02-13T20:51:15.591Z,4.01
2023-02-13T20:53:44.289Z,3.99
2023-02-13T20:56:19.886Z,3.92
2023-02-13T20:58:49.093Z,3.90
2023-02-13T21:01:22.563Z,3.90
2023-02-13T21:03:53.890Z,3.85
2023-02-13T21:06:26.610Z,3.80
2023-02-13T21:08:53.720Z,3.81
2023-02-13T21:11:22.726Z,3.80
2023-02-13T21:13:50.134Z,3.81
2023-02-13T21:16:23.037Z,3.81
2023-02-13T21:18:53.233Z,3.76
2023-02-13T21:21:21.467Z,3.72
2023-02-13T21:23:48.681Z,3.70
2023-02-13T21:26:16.994Z,3.75
2023-02-13T21:28:46.223Z,3.75
2023-02-13T21:31:14.717Z,3.71
2023-02-13T21:33:41.801Z,3.72
2023-02-13T21:36:10.499Z,3.75
2023-02-13T21:38:38.829Z,3.70
2023-02-13T21:41:10.050Z,3.65
2023-02-13T21:43:39.954Z,3.65
2023-02-13T21:46:11.785Z,3.70
2023-02-13T21:48:40.252Z,3.69
2023-02-13T21:51:08.723Z,3.65
2023-02-13T21:53:35.989Z,3.55
2023-02-13T21:56:05.121Z,3.57
2023-02-13T21:58:36.927Z,3.58
2023-02-13T22:01:25.985Z,3.63
2023-02-13T22:04:00.960Z,3.66
2023-02-13T22:06:33.173Z,3.68
2023-02-13T22:09:09.180Z,3.67
2023-02-13T22:11:36.607Z,3.66
2023-02-13T22:14:05.721Z,3.70
2023-02-13T22:16:35.177Z,3.68
2023-02-13T22:19:04.501Z,3.67
2023-02-13T22:21:32.997Z,3.59
2023-02-13T22:24:00.344Z,3.64
2023-02-13T22:26:33.171Z,3.60
2023-02-13T22:29:11.130Z,3.59
2023-02-13T22:31:38.629Z,3.60
2023-02-13T22:34:06.397Z,3.63
2023-02-13T22:36:38.545Z,3.57
2023-02-13T22:39:05.619Z,3.56
2023-02-13T22:41:32.519Z,3.56
2023-02-13T22:43:59.528Z,3.62
2023-02-13T22:46:32.138Z,3.58
2023-02-13T22:48:59.628Z,3.50
2023-02-13T22:51:33.141Z,3.48
2023-02-13T22:54:00.179Z,3.49
2023-02-13T22:56:29.475Z,3.55
2023-02-13T22:58:56.749Z,3.54
2023-02-13T23:01:26.323Z,3.51
2023-02-13T23:03:54.203Z,3.51
2023-02-13T23:06:22.433Z,3.46
2023-02-13T23:08:52.577Z,3.50
2023-02-13T23:11:42.365Z,3.56
2023-02-13T23:14:10.337Z,3.53
2023-02-13T23:17:00.761Z,3.46
2023-02-13T23:19:29.882Z,3.46
2023-02-13T23:21:58.108Z,3.41
2023-02-13T23:24:25.135Z,3.34
2023-02-13T23:26:52.251Z,3.29
2023-02-13T23:29:19.134Z,3.24
2023-02-13T23:31:46.262Z,3.17
2023-02-13T23:34:13.220Z,3.18
2023-02-13T23:36:40.170Z,3.17
2023-02-13T23:39:07.163Z,3.11
2023-02-13T23:41:34.099Z,3.10
2023-02-13T23:44:01.376Z,3.05
2023-02-13T23:46:28.480Z,3.03
2023-02-13T23:48:55.382Z,2.99
2023-02-13T23:51:23.214Z,2.90
2023-02-13T23:53:50.262Z,2.86
2023-02-13T23:56:17.258Z,2.85
2023-02-13T23:58:44.146Z,2.82
